METAR AND TAF INFORMATION
METAR FOR SACO
ADDS - METARS form results

(2048 UTC 13 November 2018)
Data provider http://aviationweather.gov/metar/data/
 
METAR text: SACO 132025Z 17009KT 9000 -TSRA SCT030 FEW045CB 22/10 Q1009 NOSIG RMK CB OBS SE
Conditions at: SACO (CORDOBA AIRPORT , AR) observed 2025 UTC 13 November 2018
Temperature: 22.0°C (72°F)
Dewpoint: 10.0°C (50°F) [RH = 46%]
Pressure (altimeter): 29.79 inches Hg (1009.0 mb)
Winds: from the S (170 degrees) at 10 MPH (9 knots; 4.6 m/s)
Visibility: 6 miles ( 9 km)
Ceiling: at least 12,000 feet AGL
Clouds: scattered clouds at 3000 feet AGL
few clouds at 4500 feet AGL
Weather: -TSRA  (light rain associated with thunderstorm(s))

METAR text: SACO 132000Z 18011KT 120V180 9999 SCT035 SCT100 24/10 Q1009 NOSIG
Conditions at: SACO (CORDOBA AIRPORT , AR) observed 2000 UTC 13 November 2018
Temperature: 24.0°C (75°F)
Dewpoint: 10.0°C (50°F) [RH = 41%]
Pressure (altimeter): 29.79 inches Hg (1009.0 mb)
Winds: from the S (180 degrees) at 13 MPH (11 knots; 5.7 m/s)
Visibility: 6 or more miles (10+ km)
Ceiling: at least 12,000 feet AGL
Clouds: scattered clouds at 3500 feet AGL
scattered clouds at 10000 feet AGL
Weather: no significant weather observed at this time

Forecast for: SACO (CORDOBA AIRPORT , AR)
Text: TAF SACO 131700Z 1318/1418 20015KT 9999 BKN030 TX28/1418Z TN15/1409Z
Forecast period: 1800 to 2200 UTC 13 November 2018
Forecast type: FROM: standard forecast or significant change
Winds: from the SSW (200 degrees) at 17 MPH (15 knots; 7.7 m/s)
Visibility: 6 or more miles 10+ km)
Ceiling: 3000 feet AGL
Clouds: broken clouds at 3000 feet AGL
Weather: no significant weather forecast for this period
Text: BECMG 1322/1300 VRB05KT 9999 BKN030
Forecast period: 2200 UTC 13 November 2018 to 1800 UTC 14 November 2018
Forecast type: BECOMING: Conditions expected to become as follows by 0000 UTC 13 November 2018
Winds: variable direction winds at 6 MPH (5 knots; 2.6 m/s)
Visibility: 6 or more miles 10+ km)
Ceiling: 3000 feet AGL
Clouds: broken clouds at 3000 feet AGL
Weather: no significant weather forecast for this period

 AIRPORT MAP

 RUNWAY INFORMATION
Runway 05 Runway length 7218 ft Runway width 148 ft
Runway elevation 1526 ft Runway displaced threshold 840 ft Runway heading 43
Runway 23 Runway length 7218 ft Runway width 148 ft
Runway elevation 1539 ft Runway displaced threshold 0 ft Runway heading 223
Runway 18 Runway length 10499 ft Runway width 148 ft
Runway elevation 1604 ft Runway displaced threshold 0 ft Runway heading 178
Runway 36 Runway length 10499 ft Runway width 148 ft
Runway elevation 1522 ft Runway displaced threshold 0 ft Runway heading 358

 AIRPORT FREQUENCIES
Type ATIS Name ATIS Frequency 114.5 MHZ
Type GND Name GND Frequency 121.75 MHZ
Type MISC Name METAR NOTA Frequency 342.55 MHZ
Type TWR Name CORDOBA TW Frequency 118.3 MHZ

 AIRPORT NEAR NAVIGATION AIDS
Type VOR-DME Name Cordoba Frequency 114500 KHZ
Type NDB Name Cordoba Frequency 350 KHZ